createdAt,value
2019-03-21T00:00:38.037Z,21.63
2019-03-21T00:03:07.428Z,22.93
2019-03-21T00:05:37.640Z,22.70
2019-03-21T00:08:09.147Z,21.77
2019-03-21T00:11:25.515Z,23.03
2019-03-21T00:14:06.641Z,21.70
2019-03-21T00:16:28.201Z,22.03
2019-03-21T00:18:57.694Z,22.07
2019-03-21T00:21:27.090Z,21.23
2019-03-21T00:23:56.457Z,21.77
2019-03-21T00:26:26.024Z,22.13
2019-03-21T00:28:55.444Z,21.30
2019-03-21T00:31:24.847Z,21.30
2019-03-21T00:33:54.227Z,20.60
2019-03-21T00:36:23.626Z,21.77
2019-03-21T00:38:53.030Z,21.30
2019-03-21T00:44:04.514Z,21.13
2019-03-21T00:46:33.907Z,20.97
2019-03-21T00:49:03.395Z,20.70
2019-03-21T00:51:32.741Z,19.70
2019-03-21T00:54:02.122Z,22.00
2019-03-21T00:56:31.521Z,20.73
2019-03-21T00:59:00.941Z,20.53
2019-03-21T01:01:30.355Z,19.60
2019-03-21T01:03:59.811Z,18.00
2019-03-21T01:06:29.196Z,18.17
2019-03-21T01:08:58.598Z,19.27
2019-03-21T01:11:27.973Z,19.30
2019-03-21T01:13:57.401Z,19.13
2019-03-21T01:16:26.859Z,18.73
2019-03-21T01:18:56.507Z,18.57
2019-03-21T01:21:25.884Z,18.13
2019-03-21T01:23:55.289Z,19.10
2019-03-21T01:26:24.703Z,18.93
2019-03-21T01:28:54.200Z,18.10
2019-03-21T01:31:23.639Z,18.67
2019-03-21T01:33:53.010Z,18.57
2019-03-21T01:36:23.576Z,19.23
2019-03-21T01:38:53.061Z,19.10
2019-03-21T01:41:22.641Z,18.63
2019-03-21T01:43:52.454Z,18.63
2019-03-21T01:46:22.123Z,19.10
2019-03-21T01:48:51.680Z,18.47
2019-03-21T01:51:21.055Z,18.90
2019-03-21T01:53:50.645Z,18.93
2019-03-21T01:56:20.012Z,18.57
2019-03-21T01:58:49.689Z,18.40
2019-03-21T02:01:19.087Z,18.83
2019-03-21T02:03:48.459Z,18.73
2019-03-21T02:06:17.880Z,19.70
2019-03-21T02:08:47.381Z,19.10
2019-03-21T02:11:16.771Z,17.77
2019-03-21T02:13:46.180Z,17.10
2019-03-21T02:16:15.563Z,16.47
2019-03-21T02:18:45.143Z,16.40
2019-03-21T02:21:14.582Z,14.40
2019-03-21T02:23:44.016Z,14.40
2019-03-21T02:26:13.416Z,13.73
2019-03-21T02:28:42.917Z,13.57
2019-03-21T02:31:12.332Z,13.63
2019-03-21T02:33:41.976Z,12.93
2019-03-21T02:36:11.389Z,14.67
2019-03-21T02:38:40.907Z,14.80
2019-03-21T02:41:11.058Z,15.03
2019-03-21T02:43:40.626Z,13.17
2019-03-21T02:46:10.339Z,14.10
2019-03-21T02:48:40.007Z,14.20
2019-03-21T02:51:09.518Z,13.83
2019-03-21T02:53:38.900Z,15.07
2019-03-21T02:58:48.325Z,12.43
2019-03-21T03:01:17.720Z,12.27
2019-03-21T03:03:47.121Z,12.60
2019-03-21T03:06:16.519Z,11.30
2019-03-21T03:08:46.099Z,11.07
2019-03-21T03:11:16.070Z,11.60
2019-03-21T03:13:47.190Z,12.77
2019-03-21T03:16:16.556Z,11.93
2019-03-21T03:18:46.155Z,12.60
2019-03-21T03:21:15.631Z,12.97
2019-03-21T03:23:45.015Z,12.67
2019-03-21T03:28:54.582Z,12.80
2019-03-21T03:31:23.987Z,13.00
2019-03-21T03:33:53.369Z,13.13
2019-03-21T03:36:22.912Z,13.30
2019-03-21T03:38:52.502Z,12.57
2019-03-21T03:41:21.996Z,14.37
2019-03-21T03:43:51.391Z,13.47
2019-03-21T03:46:20.797Z,13.17
2019-03-21T03:48:50.250Z,12.17
2019-03-21T03:51:19.621Z,13.60
2019-03-21T03:56:28.912Z,13.63
2019-03-21T03:58:59.344Z,13.57
2019-03-21T04:01:28.826Z,12.73
2019-03-21T04:03:58.575Z,13.50
2019-03-21T04:06:28.161Z,13.77
2019-03-21T04:08:57.784Z,13.53
2019-03-21T04:11:27.179Z,14.17
2019-03-21T04:13:56.577Z,13.73
2019-03-21T04:16:25.971Z,13.17
2019-03-21T04:18:55.539Z,13.47
2019-03-21T04:21:25.014Z,13.67
2019-03-21T04:23:54.442Z,11.33
2019-03-21T04:26:26.647Z,12.10
2019-03-21T04:28:56.273Z,11.97
2019-03-21T04:31:25.753Z,12.97
2019-03-21T04:33:56.958Z,12.67
2019-03-21T04:36:26.369Z,11.43
2019-03-21T04:38:55.933Z,11.90
2019-03-21T04:41:25.521Z,11.73
2019-03-21T04:43:54.961Z,11.13
2019-03-21T04:46:24.550Z,11.67
2019-03-21T04:48:54.087Z,11.97
2019-03-21T04:51:23.480Z,12.63
2019-03-21T04:53:53.613Z,11.93
2019-03-21T04:56:23.188Z,12.30
2019-03-21T04:58:52.719Z,13.07
2019-03-21T05:01:22.152Z,14.13
2019-03-21T05:03:51.516Z,14.90
2019-03-21T05:06:20.995Z,14.93
2019-03-21T05:11:38.592Z,16.80
2019-03-21T05:14:07.947Z,17.73
2019-03-21T05:16:37.448Z,17.80
2019-03-21T05:19:07.143Z,17.33
2019-03-21T05:21:36.527Z,17.57
2019-03-21T05:24:05.954Z,17.47
2019-03-21T05:26:35.473Z,17.57
2019-03-21T05:29:05.124Z,17.87
2019-03-21T05:31:35.103Z,17.63
2019-03-21T05:34:05.084Z,18.40
2019-03-21T05:36:34.493Z,17.63
2019-03-21T05:39:06.196Z,18.03
2019-03-21T05:41:35.647Z,18.40
2019-03-21T05:44:10.511Z,17.80
2019-03-21T05:46:39.927Z,18.53
2019-03-21T05:49:09.534Z,18.40
2019-03-21T05:51:38.976Z,18.70
2019-03-21T05:54:08.326Z,20.00
2019-03-21T05:56:37.733Z,19.13
2019-03-21T05:59:07.283Z,18.83
2019-03-21T06:01:36.676Z,20.30
2019-03-21T06:04:06.246Z,20.47
2019-03-21T06:06:42.258Z,21.00
2019-03-21T06:09:13.457Z,22.53
2019-03-21T06:11:45.559Z,21.07
2019-03-21T06:14:15.221Z,20.57
2019-03-21T06:16:44.698Z,23.50
2019-03-21T06:19:43.320Z,22.30
2019-03-21T06:22:23.273Z,22.27
2019-03-21T06:25:05.519Z,23.57
2019-03-21T06:27:35.010Z,23.23
2019-03-21T06:30:05.566Z,22.23
2019-03-21T06:32:34.928Z,23.20
2019-03-21T06:37:40.304Z,21.73
2019-03-21T06:40:10.382Z,21.80
2019-03-21T06:42:39.703Z,21.17
2019-03-21T06:45:09.133Z,22.83
2019-03-21T06:47:38.657Z,21.87
2019-03-21T06:50:08.527Z,22.23
2019-03-21T06:52:37.879Z,22.23
2019-03-21T06:55:07.536Z,22.23
2019-03-21T06:57:36.882Z,22.73
2019-03-21T07:00:06.882Z,23.57
2019-03-21T07:02:36.326Z,21.93
2019-03-21T07:05:06.525Z,23.40
2019-03-21T07:07:35.928Z,23.53
2019-03-21T07:10:06.555Z,23.83
2019-03-21T07:12:35.929Z,24.40
2019-03-21T07:15:06.667Z,23.20
2019-03-21T07:17:36.187Z,24.97
2019-03-21T07:20:06.434Z,23.20
2019-03-21T07:22:38.298Z,23.57
2019-03-21T07:25:07.450Z,23.17
2019-03-21T07:27:37.931Z,24.53
2019-03-21T07:30:08.591Z,23.03
2019-03-21T07:32:37.924Z,23.27
2019-03-21T07:35:08.045Z,24.07
2019-03-21T07:37:37.824Z,23.83
2019-03-21T07:40:09.182Z,23.50
2019-03-21T07:42:38.625Z,23.30
2019-03-21T07:45:09.101Z,22.97
2019-03-21T07:47:38.654Z,22.30
2019-03-21T07:50:09.172Z,24.03
2019-03-21T07:52:38.604Z,23.20
2019-03-21T07:55:08.513Z,21.50
2019-03-21T07:57:38.207Z,22.57
2019-03-21T08:00:10.135Z,24.20
2019-03-21T08:02:39.562Z,24.13
2019-03-21T08:05:09.569Z,25.53
2019-03-21T08:07:39.983Z,24.20
2019-03-21T08:10:09.684Z,24.23
2019-03-21T08:12:38.990Z,23.83
2019-03-21T08:15:08.602Z,24.17
2019-03-21T08:17:39.124Z,25.30
2019-03-21T08:20:09.140Z,24.27
2019-03-21T08:22:38.514Z,24.10
2019-03-21T08:25:08.759Z,23.73
2019-03-21T08:27:38.666Z,24.60
2019-03-21T08:30:10.515Z,22.90
2019-03-21T08:32:39.864Z,22.87
2019-03-21T08:35:09.345Z,22.97
2019-03-21T08:37:38.709Z,21.80
2019-03-21T08:40:08.254Z,20.80
2019-03-21T08:42:37.879Z,20.03
2019-03-21T08:45:07.496Z,20.27
2019-03-21T08:47:38.104Z,18.87
2019-03-21T08:50:07.838Z,19.27
2019-03-21T08:52:37.258Z,18.10
2019-03-21T08:55:07.215Z,18.47
2019-03-21T08:57:36.609Z,19.73
2019-03-21T09:00:07.237Z,15.93
2019-03-21T09:02:36.594Z,12.73
2019-03-21T09:05:06.799Z,12.03
2019-03-21T09:07:36.390Z,10.77
2019-03-21T09:10:08.038Z,10.93
2019-03-21T09:12:37.686Z,9.33
2019-03-21T09:15:08.287Z,9.43
2019-03-21T09:17:38.040Z,11.03
2019-03-21T09:20:08.066Z,9.70
2019-03-21T09:22:37.507Z,10.63
2019-03-21T09:25:07.047Z,10.03
2019-03-21T09:27:36.444Z,11.33
2019-03-21T09:30:06.846Z,11.87
2019-03-21T09:32:36.175Z,13.23
2019-03-21T09:35:05.940Z,12.50
2019-03-21T09:37:35.359Z,13.63
2019-03-21T09:40:05.702Z,13.53
2019-03-21T09:42:35.201Z,13.23
2019-03-21T09:45:06.549Z,13.20
2019-03-21T09:47:36.024Z,13.63
2019-03-21T09:50:06.097Z,13.60
2019-03-21T09:52:35.478Z,14.73
2019-03-21T09:55:05.283Z,13.70
2019-03-21T09:57:34.906Z,14.40
2019-03-21T10:00:05.691Z,14.63
2019-03-21T10:02:35.041Z,14.43
2019-03-21T10:05:05.409Z,14.17
2019-03-21T10:07:34.983Z,15.73
2019-03-21T10:10:04.948Z,15.07
2019-03-21T10:12:34.291Z,15.57
2019-03-21T10:15:03.932Z,16.20
2019-03-21T10:17:33.464Z,15.97
2019-03-21T10:20:02.785Z,15.00
2019-03-21T10:22:32.199Z,15.33
2019-03-21T10:25:01.518Z,16.00
2019-03-21T10:27:30.887Z,16.03
2019-03-21T10:30:00.365Z,15.83
2019-03-21T10:32:29.847Z,15.50
2019-03-21T10:34:59.406Z,16.77
2019-03-21T10:37:28.768Z,15.83
2019-03-21T10:39:58.123Z,16.57
2019-03-21T10:42:28.919Z,17.93
2019-03-21T10:44:58.302Z,17.73
2019-03-21T10:47:27.643Z,17.00
2019-03-21T10:49:57.017Z,18.17
2019-03-21T10:52:26.449Z,18.23
2019-03-21T10:54:55.810Z,17.93
2019-03-21T10:57:25.138Z,17.73
2019-03-21T10:59:54.555Z,19.80
2019-03-21T11:02:23.905Z,18.93
2019-03-21T11:04:53.243Z,18.97
2019-03-21T11:07:20.815Z,19.70
2019-03-21T11:09:50.144Z,18.00
2019-03-21T11:12:19.496Z,18.40
2019-03-21T11:14:48.850Z,17.80
2019-03-21T11:17:18.176Z,18.10
2019-03-21T11:19:47.561Z,18.03
2019-03-21T11:22:16.924Z,18.03
2019-03-21T11:24:46.329Z,17.13
2019-03-21T11:27:15.747Z,17.73
2019-03-21T11:29:45.067Z,16.60
2019-03-21T11:32:14.501Z,17.53
2019-03-21T11:34:43.937Z,16.53
2019-03-21T11:37:13.276Z,16.87
2019-03-21T11:39:42.625Z,16.97
2019-03-21T11:42:14.404Z,17.57
2019-03-21T11:44:43.869Z,16.20
2019-03-21T11:47:13.390Z,16.80
2019-03-21T11:49:42.892Z,15.70
2019-03-21T11:52:18.289Z,15.37
2019-03-21T11:54:43.411Z,17.07
2019-03-21T11:57:12.859Z,16.60
2019-03-21T11:59:51.590Z,16.37
2019-03-21T12:02:13.436Z,17.43
2019-03-21T12:04:42.832Z,16.57
2019-03-21T12:07:12.251Z,17.27
2019-03-21T12:09:41.803Z,16.80
2019-03-21T12:12:11.191Z,16.57
2019-03-21T12:14:40.494Z,17.40
2019-03-21T12:17:12.669Z,17.80
2019-03-21T12:19:41.237Z,16.93
2019-03-21T12:22:10.542Z,17.07
2019-03-21T12:24:40.050Z,17.60
2019-03-21T12:27:09.365Z,16.90
2019-03-21T12:29:38.827Z,18.60
2019-03-21T12:32:08.270Z,17.97
2019-03-21T12:34:37.578Z,18.67
2019-03-21T12:37:06.929Z,19.37
2019-03-21T12:39:36.289Z,18.53
2019-03-21T12:42:05.914Z,19.53
2019-03-21T12:44:35.231Z,20.30
2019-03-21T12:47:05.324Z,19.33
2019-03-21T12:49:34.694Z,19.47
2019-03-21T12:52:04.622Z,18.30
2019-03-21T12:54:34.312Z,19.70
2019-03-21T12:57:03.984Z,18.83
2019-03-21T12:59:33.410Z,19.23
2019-03-21T13:02:02.753Z,19.07
2019-03-21T13:04:32.444Z,18.40
2019-03-21T13:07:01.770Z,19.30
2019-03-21T13:09:31.131Z,19.83
2019-03-21T13:12:00.451Z,19.30
2019-03-21T13:14:29.785Z,19.30
2019-03-21T13:16:59.123Z,20.07
2019-03-21T13:19:28.541Z,20.13
2019-03-21T13:21:57.966Z,19.57
2019-03-21T13:24:27.318Z,19.53
2019-03-21T13:26:56.651Z,19.53
2019-03-21T13:29:26.146Z,19.90
2019-03-21T13:31:55.534Z,21.03
2019-03-21T13:34:24.854Z,19.67
2019-03-21T13:36:54.175Z,19.33
2019-03-21T13:39:23.582Z,20.53
2019-03-21T13:41:53.025Z,20.33
2019-03-21T13:44:22.357Z,19.03
2019-03-21T13:46:51.718Z,20.37
2019-03-21T13:49:21.169Z,16.30
2019-03-21T13:51:50.513Z,16.10
2019-03-21T13:54:19.924Z,14.70
2019-03-21T13:56:49.339Z,14.80
2019-03-21T13:59:19.774Z,14.40
2019-03-21T14:01:49.335Z,14.33
2019-03-21T14:04:18.684Z,14.23
2019-03-21T14:06:48.273Z,14.13
2019-03-21T14:09:20.321Z,14.10
2019-03-21T14:11:48.945Z,14.60
2019-03-21T14:14:18.269Z,14.70
2019-03-21T14:16:47.645Z,14.60
2019-03-21T14:19:17.025Z,14.70
2019-03-21T14:21:46.358Z,12.73
2019-03-21T14:24:15.716Z,12.93
2019-03-21T14:26:45.084Z,12.50
2019-03-21T14:29:14.417Z,13.13
2019-03-21T14:31:43.755Z,12.97
2019-03-21T14:34:13.171Z,12.77
2019-03-21T14:36:42.607Z,12.30
2019-03-21T14:39:12.074Z,12.37
2019-03-21T14:41:41.411Z,12.40
2019-03-21T14:44:10.742Z,11.67
2019-03-21T14:46:40.069Z,11.30
2019-03-21T14:49:09.432Z,12.30
2019-03-21T14:51:38.726Z,11.73
2019-03-21T14:54:08.058Z,11.33
2019-03-21T14:56:37.378Z,11.30
2019-03-21T14:59:06.838Z,11.07
2019-03-21T15:01:36.180Z,10.90
2019-03-21T15:04:05.648Z,10.23
2019-03-21T15:06:35.055Z,11.23
2019-03-21T15:09:06.681Z,10.47
2019-03-21T15:11:36.652Z,10.67
2019-03-21T15:14:06.091Z,10.80
2019-03-21T15:16:35.686Z,10.03
2019-03-21T15:19:05.203Z,10.60
2019-03-21T15:21:34.545Z,10.67
2019-03-21T15:24:04.112Z,10.63
2019-03-21T15:26:33.550Z,10.80
2019-03-21T15:29:02.953Z,11.23
2019-03-21T15:31:32.316Z,10.60
2019-03-21T15:34:01.638Z,10.43
2019-03-21T15:36:30.995Z,10.53
2019-03-21T15:39:00.377Z,10.93
2019-03-21T15:41:29.714Z,11.57
2019-03-21T15:43:59.062Z,11.30
2019-03-21T15:46:28.484Z,11.67
2019-03-21T15:48:57.951Z,11.80
2019-03-21T15:51:27.320Z,11.93
2019-03-21T15:53:56.815Z,11.40
2019-03-21T15:56:26.383Z,12.27
2019-03-21T15:58:55.816Z,11.80
2019-03-21T16:01:25.171Z,12.10
2019-03-21T16:03:54.662Z,10.93
2019-03-21T16:06:23.993Z,11.28
2019-03-21T16:08:53.390Z,11.60
2019-03-21T16:11:22.784Z,11.93
2019-03-21T16:13:52.133Z,11.43
2019-03-21T16:16:21.560Z,11.83
2019-03-21T16:18:51.119Z,12.73
2019-03-21T16:21:20.513Z,11.40
2019-03-21T16:23:50.104Z,11.20
2019-03-21T16:26:19.460Z,11.67
2019-03-21T16:28:49.024Z,11.53
2019-03-21T16:31:18.398Z,10.53
2019-03-21T16:33:47.804Z,10.90
2019-03-21T16:36:17.183Z,11.50
2019-03-21T16:38:46.613Z,10.23
2019-03-21T16:41:15.954Z,11.07
2019-03-21T16:43:45.297Z,10.90
2019-03-21T16:46:14.679Z,12.47
2019-03-21T16:48:44.032Z,12.30
2019-03-21T16:51:13.356Z,10.93
2019-03-21T16:53:43.891Z,10.53
2019-03-21T16:56:13.564Z,10.43
2019-03-21T16:58:43.053Z,9.60
2019-03-21T17:01:12.459Z,10.17
2019-03-21T17:03:41.844Z,9.83
2019-03-21T17:06:11.275Z,9.63
2019-03-21T17:08:40.749Z,9.17
2019-03-21T17:11:10.109Z,10.13
2019-03-21T17:13:39.568Z,10.27
2019-03-21T17:16:08.997Z,10.43
2019-03-21T17:18:38.608Z,10.57
2019-03-21T17:21:09.518Z,9.83
2019-03-21T17:23:39.065Z,10.23
2019-03-21T17:26:08.446Z,10.40
2019-03-21T17:28:37.963Z,9.47
2019-03-21T17:31:08.033Z,9.87
2019-03-21T17:33:37.421Z,10.43
2019-03-21T17:36:06.810Z,9.83
2019-03-21T17:38:36.247Z,9.10
2019-03-21T17:41:05.962Z,8.77
2019-03-21T17:43:35.428Z,8.57
2019-03-21T17:46:05.000Z,8.87
2019-03-21T17:48:36.627Z,9.37
2019-03-21T17:51:06.106Z,9.20
2019-03-21T17:53:35.662Z,6.97
2019-03-21T17:56:05.316Z,6.70
2019-03-21T17:58:34.920Z,6.20
2019-03-21T18:01:04.649Z,6.13
2019-03-21T18:03:34.341Z,6.23
2019-03-21T18:06:03.842Z,5.50
2019-03-21T18:08:33.147Z,6.43
2019-03-21T18:11:02.495Z,7.20
2019-03-21T18:13:31.826Z,7.03
2019-03-21T18:16:01.320Z,6.60
2019-03-21T18:18:31.804Z,7.13
2019-03-21T18:21:01.194Z,6.95
2019-03-21T18:23:30.621Z,6.00
2019-03-21T18:25:59.967Z,6.57
2019-03-21T18:28:29.397Z,5.47
2019-03-21T18:30:58.853Z,5.20
2019-03-21T18:33:28.271Z,5.73
2019-03-21T18:35:57.588Z,6.10
2019-03-21T18:38:27.971Z,5.83
2019-03-21T18:40:57.321Z,7.33
2019-03-21T18:43:26.670Z,5.87
2019-03-21T18:45:56.007Z,6.70
2019-03-21T18:48:25.406Z,7.50
2019-03-21T18:50:54.820Z,7.53
2019-03-21T18:53:24.522Z,6.97
2019-03-21T18:55:53.871Z,7.50
2019-03-21T18:58:23.377Z,7.40
2019-03-21T19:00:52.698Z,7.97
2019-03-21T19:03:22.158Z,8.43
2019-03-21T19:05:51.764Z,10.33
2019-03-21T19:08:21.213Z,8.40
2019-03-21T19:10:50.628Z,8.10
2019-03-21T19:13:20.008Z,8.67
2019-03-21T19:15:49.408Z,9.53
2019-03-21T19:18:18.827Z,8.93
2019-03-21T19:20:48.205Z,8.70
2019-03-21T19:23:17.597Z,8.90
2019-03-21T19:25:46.987Z,9.10
2019-03-21T19:28:16.472Z,9.93
2019-03-21T19:30:45.868Z,8.80
2019-03-21T19:33:15.221Z,8.43
2019-03-21T19:35:46.851Z,10.13
2019-03-21T19:38:15.821Z,9.97
2019-03-21T19:40:45.196Z,9.43
2019-03-21T19:43:14.729Z,9.83
2019-03-21T19:45:44.114Z,9.70
2019-03-21T19:48:14.515Z,10.07
2019-03-21T19:50:43.979Z,9.53
2019-03-21T19:53:13.396Z,10.03
2019-03-21T19:55:42.853Z,9.30
2019-03-21T19:58:12.362Z,8.97
2019-03-21T20:00:41.858Z,10.20
2019-03-21T20:03:11.283Z,9.87
2019-03-21T20:05:40.736Z,11.20
2019-03-21T20:08:11.202Z,11.07
2019-03-21T20:10:40.760Z,11.90
2019-03-21T20:13:10.144Z,11.40
2019-03-21T20:15:39.783Z,14.07
2019-03-21T20:18:09.188Z,12.63
2019-03-21T20:20:39.606Z,12.70
2019-03-21T20:23:09.572Z,12.07
2019-03-21T20:25:43.244Z,12.20
2019-03-21T20:28:10.317Z,11.07
2019-03-21T20:30:40.044Z,11.57
2019-03-21T20:33:09.421Z,11.33
2019-03-21T20:35:38.786Z,11.33
2019-03-21T20:38:09.346Z,12.33
2019-03-21T20:40:39.258Z,11.97
2019-03-21T20:43:08.951Z,12.57
2019-03-21T20:45:38.342Z,12.77
2019-03-21T20:48:07.775Z,13.60
2019-03-21T20:50:37.256Z,11.90
2019-03-21T20:53:06.727Z,11.60
2019-03-21T20:55:36.135Z,12.63
2019-03-21T21:00:41.487Z,12.33
2019-03-21T21:03:10.903Z,12.53
2019-03-21T21:05:40.239Z,12.47
2019-03-21T21:08:09.747Z,12.80
2019-03-21T21:10:39.067Z,13.17
2019-03-21T21:13:08.482Z,13.43
2019-03-21T21:15:37.867Z,12.90
2019-03-21T21:18:08.392Z,13.50
2019-03-21T21:20:37.721Z,13.73
2019-03-21T21:23:07.036Z,13.83
2019-03-21T21:25:36.420Z,15.93
2019-03-21T21:28:09.007Z,14.90
2019-03-21T21:30:38.398Z,14.80
2019-03-21T21:33:07.779Z,15.63
2019-03-21T21:35:37.128Z,15.80
2019-03-21T21:38:06.707Z,15.93
2019-03-21T21:40:36.172Z,16.93
2019-03-21T21:43:05.531Z,16.73
2019-03-21T21:45:34.860Z,16.37
2019-03-21T21:48:04.282Z,15.97
2019-03-21T21:50:33.727Z,16.07
2019-03-21T21:53:03.030Z,16.47
2019-03-21T21:55:32.403Z,15.83
2019-03-21T21:58:01.931Z,16.83
2019-03-21T22:00:31.288Z,16.77
2019-03-21T22:03:00.762Z,16.73
2019-03-21T22:05:30.243Z,17.30
2019-03-21T22:07:59.774Z,17.60
2019-03-21T22:10:29.605Z,17.13
2019-03-21T22:12:59.336Z,17.37
2019-03-21T22:15:28.712Z,17.57
2019-03-21T22:17:58.112Z,17.83
2019-03-21T22:20:27.599Z,18.33
2019-03-21T22:22:56.991Z,17.00
2019-03-21T22:25:26.428Z,18.70
2019-03-21T22:27:56.280Z,19.07
2019-03-21T22:30:25.672Z,17.17
2019-03-21T22:32:55.047Z,18.80
2019-03-21T22:35:24.461Z,16.60
2019-03-21T22:37:53.985Z,18.17
2019-03-21T22:40:23.403Z,18.23
2019-03-21T22:42:52.799Z,19.10
2019-03-21T22:45:22.183Z,18.85
2019-03-21T22:47:51.876Z,19.47
2019-03-21T22:50:21.275Z,18.60
2019-03-21T22:52:50.615Z,19.00
2019-03-21T22:55:19.991Z,17.63
2019-03-21T22:57:49.670Z,17.10
2019-03-21T23:00:20.336Z,19.97
2019-03-21T23:02:49.723Z,18.90
2019-03-21T23:05:19.578Z,21.03
2019-03-21T23:07:49.031Z,22.30
2019-03-21T23:10:18.852Z,23.73
2019-03-21T23:12:48.325Z,21.83
2019-03-21T23:15:17.781Z,21.10
2019-03-21T23:17:47.305Z,21.43
2019-03-21T23:20:17.058Z,21.87
2019-03-21T23:22:46.496Z,22.50
2019-03-21T23:25:16.947Z,22.07
2019-03-21T23:27:47.083Z,21.33
2019-03-21T23:30:16.931Z,21.20
2019-03-21T23:32:46.662Z,22.83
2019-03-21T23:35:16.510Z,21.73
2019-03-21T23:37:45.938Z,22.17
2019-03-21T23:40:15.709Z,21.97
2019-03-21T23:42:45.297Z,21.67
2019-03-21T23:45:15.227Z,21.55
2019-03-21T23:47:44.858Z,20.80
2019-03-21T23:50:14.546Z,21.30
2019-03-21T23:52:43.968Z,21.57
2019-03-21T23:55:13.822Z,21.20
2019-03-21T23:57:43.490Z,21.00
